createdAt,value
2017-08-11T00:00:15.063Z,0
2017-08-11T00:01:24.422Z,0
2017-08-11T00:02:33.302Z,0
2017-08-11T00:03:42.186Z,0
2017-08-11T00:04:51.388Z,0
2017-08-11T00:06:00.977Z,0
2017-08-11T00:07:10.806Z,0
2017-08-11T00:08:20.334Z,0
2017-08-11T00:09:29.218Z,0
2017-08-11T00:10:38.749Z,0
2017-08-11T00:11:47.958Z,0
2017-08-11T00:12:57.464Z,0
2017-08-11T00:14:07.324Z,0
2017-08-11T00:15:16.856Z,0
2017-08-11T00:16:26.708Z,0
2017-08-11T00:17:35.603Z,0
2017-08-11T00:18:45.455Z,0
2017-08-11T00:19:54.341Z,0
2017-08-11T00:21:03.543Z,0
2017-08-11T00:22:13.071Z,0
2017-08-11T00:23:22.281Z,0
2017-08-11T00:24:31.791Z,0
2017-08-11T00:25:41.649Z,0
2017-08-11T00:26:51.176Z,0
2017-08-11T00:28:00.706Z,0
2017-08-11T00:29:09.908Z,0
2017-08-11T00:30:19.964Z,0
2017-08-11T00:31:29.490Z,0
2017-08-11T00:32:38.392Z,0
2017-08-11T00:33:47.280Z,0
2017-08-11T00:34:56.164Z,0
2017-08-11T00:36:06.018Z,0
2017-08-11T00:37:15.222Z,0
2017-08-11T00:38:24.438Z,0
2017-08-11T00:39:33.967Z,0
2017-08-11T00:40:43.827Z,0
2017-08-11T00:41:53.231Z,0
2017-08-11T00:43:02.770Z,0
2017-08-11T00:44:12.305Z,0
2017-08-11T00:45:22.163Z,0
2017-08-11T00:46:31.696Z,0
2017-08-11T00:47:41.227Z,0
2017-08-11T00:48:50.761Z,0
2017-08-11T00:50:00.293Z,0
2017-08-11T00:51:10.150Z,0
2017-08-11T00:52:20.007Z,0
2017-08-11T00:53:29.838Z,0
2017-08-11T00:54:39.040Z,0
2017-08-11T00:55:48.246Z,0
2017-08-11T00:56:57.779Z,0
2017-08-11T00:58:06.985Z,0
2017-08-11T00:59:16.046Z,0
2017-08-11T01:00:25.900Z,0
2017-08-11T01:01:35.437Z,0
2017-08-11T01:02:44.964Z,0
2017-08-11T01:03:54.172Z,0
2017-08-11T01:05:03.680Z,0
2017-08-11T01:06:13.206Z,0
2017-08-11T01:07:22.736Z,0
2017-08-11T01:08:32.276Z,0
2017-08-11T01:09:41.489Z,0
2017-08-11T01:10:51.320Z,0
2017-08-11T01:12:00.525Z,0
2017-08-11T01:13:10.065Z,0
2017-08-11T01:14:19.274Z,0
2017-08-11T01:15:29.131Z,0
2017-08-11T01:16:38.809Z,0
2017-08-11T01:17:48.025Z,0
2017-08-11T01:18:57.237Z,0
2017-08-11T01:20:07.094Z,0
2017-08-11T01:21:16.300Z,0
2017-08-11T01:22:25.556Z,0
2017-08-11T01:23:35.410Z,0
2017-08-11T01:24:44.964Z,0
2017-08-11T01:25:54.503Z,0
2017-08-11T01:27:03.725Z,0
2017-08-11T01:28:12.991Z,0
2017-08-11T01:29:22.574Z,0
2017-08-11T01:30:32.131Z,0
2017-08-11T01:31:41.336Z,0
2017-08-11T01:32:50.223Z,0
2017-08-11T01:33:59.908Z,0
2017-08-11T01:35:09.112Z,0
2017-08-11T01:36:18.321Z,0
2017-08-11T01:37:28.500Z,0
2017-08-11T01:38:38.688Z,0
2017-08-11T01:39:48.641Z,0
2017-08-11T01:40:57.847Z,0
2017-08-11T01:42:07.372Z,0
2017-08-11T01:43:17.234Z,0
2017-08-11T01:44:27.088Z,0
2017-08-11T01:45:36.069Z,0
2017-08-11T01:46:45.597Z,0
2017-08-11T01:47:54.804Z,0
2017-08-11T01:49:04.336Z,0
2017-08-11T01:50:13.863Z,0
2017-08-11T01:51:23.129Z,0
2017-08-11T01:52:32.338Z,0
2017-08-11T01:53:41.871Z,0
2017-08-11T01:54:50.750Z,0
2017-08-11T01:55:59.632Z,0
2017-08-11T01:57:08.565Z,0
2017-08-11T01:58:17.776Z,0
2017-08-11T01:59:27.632Z,0
2017-08-11T02:00:37.167Z,0
2017-08-11T02:01:46.697Z,0
2017-08-11T02:02:55.954Z,0
2017-08-11T02:04:05.816Z,0
2017-08-11T02:05:15.348Z,0
2017-08-11T02:06:24.884Z,0
2017-08-11T02:07:34.098Z,0
2017-08-11T02:08:43.779Z,0
2017-08-11T02:09:53.631Z,0
2017-08-11T02:11:03.481Z,0
2017-08-11T02:12:13.014Z,0
2017-08-11T02:13:22.222Z,0
2017-08-11T02:14:31.626Z,0
2017-08-11T02:15:40.833Z,0
2017-08-11T02:16:50.697Z,0
2017-08-11T02:18:00.552Z,0
2017-08-11T02:19:10.415Z,0
2017-08-11T02:20:19.946Z,0
2017-08-11T02:21:29.157Z,0
2017-08-11T02:22:39.008Z,0
2017-08-11T02:23:48.862Z,0
2017-08-11T02:24:58.068Z,0
2017-08-11T02:26:07.424Z,0
2017-08-11T02:27:17.275Z,0
2017-08-11T02:28:26.847Z,0
2017-08-11T02:29:36.375Z,0
2017-08-11T02:30:45.912Z,0
2017-08-11T02:31:56.147Z,0
2017-08-11T02:33:06.319Z,0
2017-08-11T02:34:15.858Z,0
2017-08-11T02:35:25.713Z,0
2017-08-11T02:36:35.589Z,0
2017-08-11T02:37:45.195Z,0
2017-08-11T02:38:55.056Z,0
2017-08-11T02:40:04.264Z,0
2017-08-11T02:41:13.791Z,0
2017-08-11T02:42:23.647Z,0
2017-08-11T02:43:33.278Z,0
2017-08-11T02:44:42.168Z,0
2017-08-11T02:45:52.025Z,0
2017-08-11T02:47:01.233Z,0
2017-08-11T02:48:10.766Z,0
2017-08-11T02:49:20.772Z,0
2017-08-11T02:50:29.983Z,0
2017-08-11T02:51:39.189Z,0
2017-08-11T02:52:49.044Z,0
2017-08-11T02:53:58.257Z,0
2017-08-11T02:55:08.087Z,0
2017-08-11T02:56:17.617Z,0
2017-08-11T02:57:26.497Z,0
2017-08-11T02:58:35.379Z,0
2017-08-11T02:59:44.586Z,0
2017-08-11T03:00:54.218Z,0
2017-08-11T03:02:03.106Z,0
2017-08-11T03:03:12.955Z,0
2017-08-11T03:04:22.489Z,0
2017-08-11T03:05:31.694Z,0
2017-08-11T03:06:41.050Z,0
2017-08-11T03:07:50.578Z,0
2017-08-11T03:08:59.467Z,0
2017-08-11T03:10:09.003Z,0
2017-08-11T03:11:18.214Z,0
2017-08-11T03:12:27.097Z,0
2017-08-11T03:13:36.632Z,0
2017-08-11T03:14:46.817Z,0
2017-08-11T03:15:56.348Z,0
2017-08-11T03:17:05.562Z,0
2017-08-11T03:18:14.819Z,0
2017-08-11T03:19:23.705Z,0
2017-08-11T03:20:32.905Z,0
2017-08-11T03:21:41.792Z,0
2017-08-11T03:22:50.674Z,0
2017-08-11T03:24:00.081Z,0
2017-08-11T03:25:09.611Z,0
2017-08-11T03:26:18.816Z,0
2017-08-11T03:27:28.352Z,0
2017-08-11T03:28:37.555Z,0
2017-08-11T03:29:47.062Z,0
2017-08-11T03:30:56.928Z,0
2017-08-11T03:32:06.780Z,0
2017-08-11T03:33:16.631Z,0
2017-08-11T03:34:25.837Z,0
2017-08-11T03:35:35.023Z,0
2017-08-11T03:36:44.229Z,0
2017-08-11T03:37:54.079Z,0
2017-08-11T03:39:02.963Z,0
2017-08-11T03:40:12.170Z,0
2017-08-11T03:41:21.852Z,0
2017-08-11T03:42:31.059Z,0
2017-08-11T03:43:40.264Z,0
2017-08-11T03:44:50.441Z,0
2017-08-11T03:46:00.615Z,0
2017-08-11T03:47:11.041Z,0
2017-08-11T03:48:20.254Z,0
2017-08-11T03:49:29.463Z,0
2017-08-11T03:50:38.994Z,0
2017-08-11T03:51:48.198Z,0
2017-08-11T03:52:58.080Z,0
2017-08-11T03:54:06.964Z,0
2017-08-11T03:55:16.825Z,0
2017-08-11T03:56:26.708Z,0
2017-08-11T03:57:35.912Z,0
2017-08-11T03:58:44.897Z,0
2017-08-11T03:59:54.105Z,0
2017-08-11T04:01:03.636Z,0
2017-08-11T04:02:13.185Z,0
2017-08-11T04:03:22.393Z,0
2017-08-11T04:04:32.394Z,0
2017-08-11T04:05:41.929Z,0
2017-08-11T04:06:51.137Z,0
2017-08-11T04:08:00.990Z,0
2017-08-11T04:09:10.841Z,0
2017-08-11T04:10:20.194Z,0
2017-08-11T04:11:29.402Z,0
2017-08-11T04:12:39.251Z,0
2017-08-11T04:13:48.458Z,0
2017-08-11T04:14:57.987Z,0
2017-08-11T04:16:07.673Z,0
2017-08-11T04:17:17.207Z,0
2017-08-11T04:18:26.412Z,0
2017-08-11T04:19:35.293Z,0
2017-08-11T04:20:44.821Z,0
2017-08-11T04:21:54.077Z,0
2017-08-11T04:23:03.605Z,0
2017-08-11T04:24:12.494Z,0
2017-08-11T04:25:21.701Z,5
2017-08-11T04:26:31.880Z,5
2017-08-11T04:27:41.263Z,0
2017-08-11T04:28:50.467Z,0
2017-08-11T04:29:59.354Z,0
2017-08-11T04:31:08.242Z,5
2017-08-11T04:32:17.446Z,5
2017-08-11T04:33:26.652Z,5
2017-08-11T04:34:35.861Z,5
2017-08-11T04:35:45.388Z,5
2017-08-11T04:36:54.595Z,5
2017-08-11T04:38:04.127Z,5
2017-08-11T04:39:14.234Z,5
2017-08-11T04:40:24.086Z,5
2017-08-11T04:41:33.629Z,5
2017-08-11T04:42:42.882Z,5
2017-08-11T04:43:52.422Z,10
2017-08-11T04:45:01.929Z,10
2017-08-11T04:46:10.839Z,10
2017-08-11T04:47:21.018Z,10
2017-08-11T04:48:30.228Z,10
2017-08-11T04:49:39.431Z,10
2017-08-11T04:50:48.365Z,10
2017-08-11T04:51:57.895Z,10
2017-08-11T04:53:07.114Z,10
2017-08-11T04:54:16.961Z,10
2017-08-11T04:55:26.494Z,10
2017-08-11T04:56:36.347Z,10
2017-08-11T04:57:45.231Z,10
2017-08-11T04:58:54.757Z,10
2017-08-11T05:00:04.291Z,10
2017-08-11T05:01:14.151Z,10
2017-08-11T05:02:24.589Z,10
2017-08-11T05:03:34.144Z,10
2017-08-11T05:04:43.353Z,15
2017-08-11T05:05:52.939Z,15
2017-08-11T05:07:02.476Z,15
2017-08-11T05:08:11.743Z,20
2017-08-11T05:09:21.275Z,20
2017-08-11T05:10:30.493Z,25
2017-08-11T05:11:39.390Z,25
2017-08-11T05:12:48.922Z,30
2017-08-11T05:13:58.922Z,30
2017-08-11T05:15:08.133Z,35
2017-08-11T05:16:17.339Z,35
2017-08-11T05:17:26.225Z,35
2017-08-11T05:18:35.437Z,40
2017-08-11T05:19:45.116Z,45
2017-08-11T05:20:54.969Z,50
2017-08-11T05:22:03.867Z,50
2017-08-11T05:23:13.078Z,55
2017-08-11T05:24:22.608Z,55
2017-08-11T05:25:32.141Z,55
2017-08-11T05:26:41.993Z,55
2017-08-11T05:27:51.524Z,60
2017-08-11T05:29:00.407Z,60
2017-08-11T05:30:10.272Z,60
2017-08-11T05:31:19.959Z,60
2017-08-11T05:32:29.486Z,55
2017-08-11T05:33:38.373Z,50
2017-08-11T05:34:47.580Z,45
2017-08-11T05:35:57.106Z,45
2017-08-11T05:37:06.512Z,45
2017-08-11T05:38:15.719Z,45
2017-08-11T05:39:24.922Z,45
2017-08-11T05:40:33.809Z,50
2017-08-11T05:41:43.013Z,45
2017-08-11T05:42:52.051Z,45
2017-08-11T05:44:01.905Z,45
2017-08-11T05:45:11.432Z,40
2017-08-11T05:46:21.289Z,40
2017-08-11T05:47:30.497Z,40
2017-08-11T05:48:40.027Z,40
2017-08-11T05:49:49.555Z,40
2017-08-11T05:50:58.764Z,40
2017-08-11T05:52:07.644Z,40
2017-08-11T05:53:16.851Z,40
2017-08-11T05:54:25.832Z,45
2017-08-11T05:55:35.042Z,55
2017-08-11T05:56:44.250Z,65
2017-08-11T05:57:53.459Z,80
2017-08-11T05:59:02.350Z,90
2017-08-11T06:00:11.866Z,95
2017-08-11T06:01:21.071Z,100
2017-08-11T06:02:30.277Z,100
2017-08-11T06:03:39.806Z,105
2017-08-11T06:04:49.013Z,110
2017-08-11T06:05:58.643Z,115
2017-08-11T06:07:07.855Z,120
2017-08-11T06:08:17.382Z,115
2017-08-11T06:09:27.563Z,110
2017-08-11T06:10:37.424Z,100
2017-08-11T06:11:47.352Z,95
2017-08-11T06:12:57.532Z,85
2017-08-11T06:14:07.064Z,75
2017-08-11T06:15:16.277Z,70
2017-08-11T06:16:25.810Z,65
2017-08-11T06:17:35.129Z,60
2017-08-11T06:18:44.985Z,60
2017-08-11T06:19:54.518Z,55
2017-08-11T06:21:04.050Z,55
2017-08-11T06:22:13.582Z,55
2017-08-11T06:23:23.091Z,50
2017-08-11T06:24:32.502Z,55
2017-08-11T06:25:41.705Z,55
2017-08-11T06:26:51.557Z,55
2017-08-11T06:28:01.088Z,55
2017-08-11T06:29:10.768Z,55
2017-08-11T06:30:19.977Z,55
2017-08-11T06:31:29.504Z,55
2017-08-11T06:32:38.710Z,55
2017-08-11T06:33:48.559Z,60
2017-08-11T06:34:58.186Z,65
2017-08-11T06:36:08.046Z,65
2017-08-11T06:37:17.253Z,65
2017-08-11T06:38:26.461Z,65
2017-08-11T06:39:35.684Z,65
2017-08-11T06:40:45.361Z,65
2017-08-11T06:41:54.889Z,65
2017-08-11T06:43:04.744Z,65
2017-08-11T06:44:14.275Z,65
2017-08-11T06:45:23.805Z,65
2017-08-11T06:46:33.062Z,65
2017-08-11T06:47:42.910Z,65
2017-08-11T06:48:52.460Z,65
2017-08-11T06:50:01.344Z,70
2017-08-11T06:51:10.549Z,75
2017-08-11T06:52:20.003Z,80
2017-08-11T06:53:29.538Z,90
2017-08-11T06:54:39.067Z,95
2017-08-11T06:55:48.271Z,100
2017-08-11T06:56:57.478Z,105
2017-08-11T06:58:06.734Z,105
2017-08-11T06:59:15.941Z,110
2017-08-11T07:00:24.822Z,110
2017-08-11T07:01:34.356Z,110
2017-08-11T07:02:43.563Z,110
2017-08-11T07:03:52.773Z,115
2017-08-11T07:05:02.304Z,120
2017-08-11T07:06:12.164Z,125
2017-08-11T07:07:21.378Z,140
2017-08-11T07:08:31.232Z,150
2017-08-11T07:09:40.736Z,160
2017-08-11T07:10:49.947Z,170
2017-08-11T07:11:59.479Z,175
2017-08-11T07:13:09.015Z,175
2017-08-11T07:14:17.926Z,180
2017-08-11T07:15:27.589Z,180
2017-08-11T07:16:37.122Z,185
2017-08-11T07:17:46.352Z,195
2017-08-11T07:18:56.525Z,205
2017-08-11T07:20:05.739Z,210
2017-08-11T07:21:14.828Z,210
2017-08-11T07:22:24.358Z,210
2017-08-11T07:23:33.242Z,205
2017-08-11T07:24:42.771Z,200
2017-08-11T07:25:51.986Z,195
2017-08-11T07:27:01.666Z,195
2017-08-11T07:28:11.521Z,190
2017-08-11T07:29:21.071Z,190
2017-08-11T07:30:29.955Z,190
2017-08-11T07:31:39.168Z,185
2017-08-11T07:32:48.430Z,190
2017-08-11T07:33:58.290Z,195
2017-08-11T07:35:07.172Z,195
2017-08-11T07:36:16.703Z,200
2017-08-11T07:37:26.229Z,200
2017-08-11T07:38:36.059Z,200
2017-08-11T07:39:45.592Z,200
2017-08-11T07:40:54.476Z,200
2017-08-11T07:42:03.693Z,200
2017-08-11T07:43:12.911Z,200
2017-08-11T07:44:21.996Z,200
2017-08-11T07:45:30.882Z,200
2017-08-11T07:46:40.737Z,200
2017-08-11T07:47:50.266Z,205
2017-08-11T07:48:59.472Z,205
2017-08-11T07:50:09.158Z,205
2017-08-11T07:51:18.690Z,210
2017-08-11T07:52:28.257Z,210
2017-08-11T07:53:37.141Z,215
2017-08-11T07:54:46.674Z,220
2017-08-11T07:55:56.404Z,220
2017-08-11T07:57:05.612Z,230
2017-08-11T07:58:14.819Z,235
2017-08-11T07:59:23.713Z,245
2017-08-11T08:00:33.573Z,255
2017-08-11T08:01:42.980Z,260
2017-08-11T08:02:51.867Z,270
2017-08-11T08:04:01.725Z,280
2017-08-11T08:05:11.593Z,295
2017-08-11T08:06:20.800Z,310
2017-08-11T08:07:30.632Z,325
2017-08-11T08:08:39.842Z,330
2017-08-11T08:09:49.374Z,340
2017-08-11T08:10:58.908Z,345
2017-08-11T08:12:08.119Z,360
2017-08-11T08:13:17.700Z,365
2017-08-11T08:14:27.239Z,370
2017-08-11T08:15:36.449Z,375
2017-08-11T08:16:45.333Z,380
2017-08-11T08:17:54.220Z,395
2017-08-11T08:19:04.498Z,405
2017-08-11T08:20:14.377Z,415
2017-08-11T08:21:23.589Z,430
2017-08-11T08:22:33.451Z,430
2017-08-11T08:23:43.305Z,435
2017-08-11T08:24:53.146Z,440
2017-08-11T08:26:02.028Z,450
2017-08-11T08:27:11.890Z,455
2017-08-11T08:28:21.423Z,455
2017-08-11T08:29:30.629Z,460
2017-08-11T08:30:39.561Z,470
2017-08-11T08:31:48.771Z,470
2017-08-11T08:32:57.980Z,470
2017-08-11T08:34:07.189Z,465
2017-08-11T08:35:16.721Z,460
2017-08-11T08:36:26.254Z,450
2017-08-11T08:37:35.794Z,440
2017-08-11T08:38:45.650Z,435
2017-08-11T08:39:55.179Z,435
2017-08-11T08:41:04.711Z,435
2017-08-11T08:42:14.342Z,440
2017-08-11T08:43:23.554Z,450
2017-08-11T08:44:33.083Z,460
2017-08-11T08:45:42.935Z,475
2017-08-11T08:46:52.147Z,485
2017-08-11T08:48:01.770Z,495
2017-08-11T08:49:11.303Z,515
2017-08-11T08:50:21.177Z,535
2017-08-11T08:51:30.716Z,545
2017-08-11T08:52:39.925Z,540
2017-08-11T08:53:49.287Z,535
2017-08-11T08:54:58.823Z,525
2017-08-11T08:56:08.681Z,525
2017-08-11T08:57:17.565Z,525
2017-08-11T08:58:27.094Z,530
2017-08-11T08:59:36.772Z,525
2017-08-11T09:00:45.660Z,520
2017-08-11T09:01:55.193Z,500
2017-08-11T09:03:04.403Z,490
2017-08-11T09:04:13.288Z,485
2017-08-11T09:05:22.645Z,480
2017-08-11T09:06:31.532Z,480
2017-08-11T09:07:41.387Z,480
2017-08-11T09:08:50.934Z,475
2017-08-11T09:10:00.462Z,470
2017-08-11T09:11:09.700Z,485
2017-08-11T09:12:18.908Z,485
2017-08-11T09:13:28.443Z,475
2017-08-11T09:14:37.654Z,465
2017-08-11T09:15:46.865Z,455
2017-08-11T09:16:56.373Z,470
2017-08-11T09:18:05.904Z,490
2017-08-11T09:19:15.107Z,495
2017-08-11T09:20:24.640Z,465
2017-08-11T09:21:34.178Z,425
2017-08-11T09:22:43.114Z,390
2017-08-11T09:23:52.969Z,350
2017-08-11T09:25:02.499Z,310
2017-08-11T09:26:11.717Z,305
2017-08-11T09:27:20.931Z,330
2017-08-11T09:28:30.762Z,370
2017-08-11T09:29:39.993Z,415
2017-08-11T09:30:49.523Z,450
2017-08-11T09:31:58.404Z,465
2017-08-11T09:33:07.936Z,480
2017-08-11T09:34:17.021Z,480
2017-08-11T09:35:26.564Z,470
2017-08-11T09:36:35.777Z,455
2017-08-11T09:37:44.994Z,415
2017-08-11T09:38:54.534Z,370
2017-08-11T09:40:04.966Z,325
2017-08-11T09:41:15.140Z,320
2017-08-11T09:42:25.323Z,345
2017-08-11T09:43:34.527Z,390
2017-08-11T09:44:43.731Z,415
2017-08-11T09:45:52.993Z,425
2017-08-11T09:47:02.845Z,415
2017-08-11T09:48:12.058Z,390
2017-08-11T09:49:21.908Z,385
2017-08-11T09:50:31.436Z,380
2017-08-11T09:51:41.591Z,380
2017-08-11T09:52:50.799Z,385
2017-08-11T09:54:00.335Z,370
2017-08-11T09:55:10.188Z,360
2017-08-11T09:56:19.078Z,350
2017-08-11T09:57:28.762Z,345
2017-08-11T09:58:37.979Z,340
2017-08-11T09:59:47.508Z,345
2017-08-11T10:00:56.716Z,360
2017-08-11T10:02:05.924Z,380
2017-08-11T10:03:15.231Z,395
2017-08-11T10:04:24.125Z,395
2017-08-11T10:05:33.334Z,385
2017-08-11T10:06:43.512Z,375
2017-08-11T10:07:52.724Z,385
2017-08-11T10:09:01.994Z,400
2017-08-11T10:10:11.530Z,405
2017-08-11T10:11:21.087Z,415
2017-08-11T10:12:30.295Z,420
2017-08-11T10:13:39.183Z,435
2017-08-11T10:14:48.716Z,450
2017-08-11T10:15:57.600Z,460
2017-08-11T10:17:06.482Z,475
2017-08-11T10:18:15.686Z,495
2017-08-11T10:19:25.223Z,515
2017-08-11T10:20:34.681Z,515
2017-08-11T10:21:43.922Z,505
2017-08-11T10:22:52.804Z,490
2017-08-11T10:24:02.012Z,475
2017-08-11T10:25:11.548Z,465
2017-08-11T10:26:21.325Z,460
2017-08-11T10:27:30.583Z,435
2017-08-11T10:28:40.116Z,395
2017-08-11T10:29:49.324Z,370
2017-08-11T10:30:58.555Z,340
2017-08-11T10:32:07.814Z,305
2017-08-11T10:33:17.027Z,285
2017-08-11T10:34:26.557Z,270
2017-08-11T10:35:36.092Z,270
2017-08-11T10:36:45.625Z,275
2017-08-11T10:37:54.562Z,275
2017-08-11T10:39:04.090Z,275
2017-08-11T10:40:12.975Z,265
2017-08-11T10:41:22.831Z,245
2017-08-11T10:42:32.365Z,225
2017-08-11T10:43:42.044Z,200
2017-08-11T10:44:51.899Z,175
2017-08-11T10:46:01.430Z,145
2017-08-11T10:47:10.960Z,130
2017-08-11T10:48:20.488Z,115
2017-08-11T10:49:30.452Z,115
2017-08-11T10:50:39.992Z,110
2017-08-11T10:51:49.197Z,110
2017-08-11T10:52:58.403Z,110
2017-08-11T10:54:07.613Z,110
2017-08-11T10:55:17.194Z,115
2017-08-11T10:56:26.082Z,130
2017-08-11T10:57:35.293Z,145
2017-08-11T10:58:45.470Z,145
2017-08-11T10:59:54.678Z,120
2017-08-11T11:01:04.265Z,100
2017-08-11T11:02:13.796Z,95
2017-08-11T11:03:23.972Z,105
2017-08-11T11:04:33.187Z,130
2017-08-11T11:05:42.719Z,165
2017-08-11T11:06:51.975Z,175
2017-08-11T11:08:01.183Z,175
2017-08-11T11:09:10.392Z,190
2017-08-11T11:10:19.922Z,225
2017-08-11T11:11:29.455Z,245
2017-08-11T11:12:38.813Z,230
2017-08-11T11:13:47.711Z,205
2017-08-11T11:14:56.919Z,180
2017-08-11T11:16:06.446Z,155
2017-08-11T11:17:16.342Z,150
2017-08-11T11:18:26.080Z,140
2017-08-11T11:19:34.961Z,135
2017-08-11T11:20:44.168Z,135
2017-08-11T11:21:53.370Z,140
2017-08-11T11:23:02.903Z,150
2017-08-11T11:24:12.039Z,165
2017-08-11T11:25:21.569Z,185
2017-08-11T11:26:31.426Z,200
2017-08-11T11:27:40.961Z,190
2017-08-11T11:28:50.174Z,190
2017-08-11T11:29:59.583Z,195
2017-08-11T11:31:08.801Z,210
2017-08-11T11:32:18.332Z,270
2017-08-11T11:33:28.188Z,345
2017-08-11T11:34:37.725Z,395
2017-08-11T11:35:47.085Z,415
2017-08-11T11:36:56.624Z,450
2017-08-11T11:38:06.481Z,470
2017-08-11T11:39:16.012Z,420
2017-08-11T11:40:25.869Z,385
2017-08-11T11:41:35.850Z,380
2017-08-11T11:42:45.378Z,370
2017-08-11T11:43:54.585Z,355
2017-08-11T11:45:04.441Z,400
2017-08-11T11:46:13.973Z,460
2017-08-11T11:47:23.331Z,475
2017-08-11T11:48:32.540Z,435
2017-08-11T11:49:42.400Z,385
2017-08-11T11:50:51.610Z,385
2017-08-11T11:52:01.143Z,430
2017-08-11T11:53:10.824Z,530
2017-08-11T11:54:20.032Z,575
2017-08-11T11:55:30.224Z,565
2017-08-11T11:56:39.434Z,535
2017-08-11T11:57:48.964Z,520
2017-08-11T11:58:58.849Z,525
2017-08-11T12:00:08.703Z,515
2017-08-11T12:01:18.241Z,545
2017-08-11T12:02:27.456Z,600
2017-08-11T12:03:36.987Z,585
2017-08-11T12:04:45.922Z,560
2017-08-11T12:05:55.139Z,580
2017-08-11T12:07:04.670Z,555
2017-08-11T12:08:14.207Z,485
2017-08-11T12:09:23.414Z,470
2017-08-11T12:10:32.302Z,490
2017-08-11T12:11:41.508Z,415
2017-08-11T12:12:51.042Z,370
2017-08-11T12:13:59.929Z,400
2017-08-11T12:15:08.823Z,450
2017-08-11T12:16:18.683Z,470
2017-08-11T12:17:28.217Z,465
2017-08-11T12:18:37.427Z,400
2017-08-11T12:19:46.988Z,330
2017-08-11T12:20:56.862Z,300
2017-08-11T12:22:06.077Z,295
2017-08-11T12:23:15.286Z,260
2017-08-11T12:24:24.826Z,225
2017-08-11T12:25:34.692Z,230
2017-08-11T12:26:44.222Z,260
2017-08-11T12:27:53.442Z,250
2017-08-11T12:29:02.976Z,230
2017-08-11T12:30:12.506Z,245
2017-08-11T12:31:21.736Z,250
2017-08-11T12:32:31.270Z,215
2017-08-11T12:33:40.801Z,185
2017-08-11T12:34:50.012Z,170
2017-08-11T12:35:59.371Z,155
2017-08-11T12:37:08.257Z,145
2017-08-11T12:38:17.792Z,150
2017-08-11T12:39:27.026Z,160
2017-08-11T12:40:36.241Z,175
2017-08-11T12:41:45.926Z,180
2017-08-11T12:42:55.136Z,185
2017-08-11T12:44:04.668Z,185
2017-08-11T12:45:13.879Z,185
2017-08-11T12:46:22.767Z,180
2017-08-11T12:47:32.450Z,190
2017-08-11T12:48:42.008Z,175
2017-08-11T12:49:52.184Z,160
2017-08-11T12:51:01.073Z,150
2017-08-11T12:52:10.288Z,150
2017-08-11T12:53:19.883Z,165
2017-08-11T12:54:30.071Z,170
2017-08-11T12:55:39.604Z,170
2017-08-11T12:56:49.139Z,175
2017-08-11T12:57:59.008Z,195
2017-08-11T12:59:08.841Z,215
2017-08-11T13:00:18.700Z,215
2017-08-11T13:01:28.239Z,215
2017-08-11T13:02:37.124Z,215
2017-08-11T13:03:46.658Z,220
2017-08-11T13:04:55.752Z,230
2017-08-11T13:06:05.287Z,240
2017-08-11T13:07:14.497Z,255
2017-08-11T13:08:23.707Z,260
2017-08-11T13:09:33.233Z,255
2017-08-11T13:10:43.164Z,260
2017-08-11T13:11:52.695Z,260
2017-08-11T13:13:01.908Z,255
2017-08-11T13:14:11.115Z,240
2017-08-11T13:15:20.649Z,235
2017-08-11T13:16:29.685Z,230
2017-08-11T13:17:38.962Z,220
2017-08-11T13:18:48.214Z,215
2017-08-11T13:19:57.422Z,220
2017-08-11T13:21:06.632Z,230
2017-08-11T13:22:16.463Z,230
2017-08-11T13:23:26.000Z,230
2017-08-11T13:24:35.531Z,225
2017-08-11T13:25:44.743Z,225
2017-08-11T13:26:53.959Z,220
2017-08-11T13:28:03.214Z,220
2017-08-11T13:29:12.748Z,210
2017-08-11T13:30:22.934Z,210
2017-08-11T13:31:32.800Z,205
2017-08-11T13:32:43.305Z,205
2017-08-11T13:33:52.343Z,200
2017-08-11T13:35:01.231Z,190
2017-08-11T13:36:10.441Z,180
2017-08-11T13:37:19.987Z,170
2017-08-11T13:38:30.161Z,160
2017-08-11T13:39:39.674Z,150
2017-08-11T13:40:49.539Z,150
2017-08-11T13:41:59.683Z,150
2017-08-11T13:43:09.540Z,150
2017-08-11T13:44:18.749Z,150
2017-08-11T13:45:28.105Z,150
2017-08-11T13:46:37.645Z,155
2017-08-11T13:47:46.853Z,160
2017-08-11T13:48:56.713Z,170
2017-08-11T13:50:06.250Z,180
2017-08-11T13:51:15.391Z,185
2017-08-11T13:52:24.284Z,195
2017-08-11T13:53:34.143Z,200
2017-08-11T13:54:43.366Z,205
2017-08-11T13:55:52.896Z,210
2017-08-11T13:57:02.585Z,205
2017-08-11T13:58:11.798Z,195
2017-08-11T13:59:21.977Z,180
2017-08-11T14:00:31.199Z,165
2017-08-11T14:01:40.746Z,160
2017-08-11T14:02:50.006Z,165
2017-08-11T14:03:58.890Z,170
2017-08-11T14:05:08.747Z,175
2017-08-11T14:06:17.965Z,180
2017-08-11T14:07:26.853Z,185
2017-08-11T14:08:36.109Z,190
2017-08-11T14:09:44.993Z,200
2017-08-11T14:10:54.529Z,205
2017-08-11T14:12:04.381Z,200
2017-08-11T14:13:14.235Z,185
2017-08-11T14:14:23.643Z,170
2017-08-11T14:15:33.177Z,160
2017-08-11T14:16:42.709Z,155
2017-08-11T14:17:52.247Z,170
2017-08-11T14:19:01.455Z,180
2017-08-11T14:20:11.191Z,195
2017-08-11T14:21:20.078Z,205
2017-08-11T14:22:29.969Z,205
2017-08-11T14:23:39.900Z,205
2017-08-11T14:24:49.438Z,215
2017-08-11T14:25:58.649Z,220
2017-08-11T14:27:08.184Z,225
2017-08-11T14:28:17.399Z,210
2017-08-11T14:29:26.937Z,185
2017-08-11T14:30:36.470Z,160
2017-08-11T14:31:46.099Z,145
2017-08-11T14:32:55.306Z,150
2017-08-11T14:34:05.167Z,150
2017-08-11T14:35:14.702Z,150
2017-08-11T14:36:24.246Z,150
2017-08-11T14:37:33.977Z,165
2017-08-11T14:38:43.186Z,175
2017-08-11T14:39:52.723Z,190
2017-08-11T14:41:01.938Z,200
2017-08-11T14:42:11.149Z,205
2017-08-11T14:43:20.409Z,200
2017-08-11T14:44:30.597Z,190
2017-08-11T14:45:40.139Z,195
2017-08-11T14:46:49.363Z,200
2017-08-11T14:47:58.893Z,205
2017-08-11T14:49:08.352Z,205
2017-08-11T14:50:18.216Z,200
2017-08-11T14:51:27.430Z,195
2017-08-11T14:52:36.963Z,185
2017-08-11T14:53:46.529Z,165
2017-08-11T14:54:56.485Z,145
2017-08-11T14:56:05.696Z,130
2017-08-11T14:57:14.906Z,125
2017-08-11T14:58:23.794Z,120
2017-08-11T14:59:32.680Z,130
2017-08-11T15:00:41.936Z,140
2017-08-11T15:01:50.820Z,150
2017-08-11T15:03:00.366Z,160
2017-08-11T15:04:09.584Z,160
2017-08-11T15:05:19.440Z,160
2017-08-11T15:06:28.485Z,170
2017-08-11T15:07:38.012Z,190
2017-08-11T15:08:47.545Z,190
2017-08-11T15:09:56.751Z,190
2017-08-11T15:11:05.635Z,190
2017-08-11T15:12:15.593Z,185
2017-08-11T15:13:24.483Z,185
2017-08-11T15:14:33.689Z,200
2017-08-11T15:15:42.913Z,205
2017-08-11T15:16:52.133Z,200
2017-08-11T15:18:02.631Z,200
2017-08-11T15:19:11.850Z,200
2017-08-11T15:20:20.744Z,200
2017-08-11T15:21:30.604Z,200
2017-08-11T15:22:39.492Z,200
2017-08-11T15:23:48.700Z,200
2017-08-11T15:24:58.231Z,200
2017-08-11T15:26:07.768Z,205
2017-08-11T15:27:17.300Z,210
2017-08-11T15:28:26.519Z,205
2017-08-11T15:29:36.366Z,195
2017-08-11T15:30:45.902Z,185
2017-08-11T15:31:55.445Z,190
2017-08-11T15:33:04.657Z,185
2017-08-11T15:34:14.515Z,180
2017-08-11T15:35:23.729Z,180
2017-08-11T15:36:33.262Z,180
2017-08-11T15:37:42.150Z,180
2017-08-11T15:38:51.683Z,165
2017-08-11T15:40:01.243Z,165
2017-08-11T15:41:10.770Z,155
2017-08-11T15:42:20.308Z,150
2017-08-11T15:43:29.194Z,150
2017-08-11T15:44:38.729Z,145
2017-08-11T15:45:47.610Z,145
2017-08-11T15:46:56.872Z,145
2017-08-11T15:48:05.762Z,145
2017-08-11T15:49:15.383Z,145
2017-08-11T15:50:25.569Z,145
2017-08-11T15:51:35.099Z,150
2017-08-11T15:52:44.681Z,145
2017-08-11T15:53:54.216Z,145
2017-08-11T15:55:03.424Z,140
2017-08-11T15:56:12.636Z,135
2017-08-11T15:57:22.166Z,135
2017-08-11T15:58:31.152Z,130
2017-08-11T15:59:40.715Z,130
2017-08-11T16:00:49.712Z,130
2017-08-11T16:01:59.258Z,130
2017-08-11T16:03:08.792Z,130
2017-08-11T16:04:18.375Z,130
2017-08-11T16:05:27.281Z,125
2017-08-11T16:06:36.490Z,120
2017-08-11T16:07:46.020Z,115
2017-08-11T16:08:55.551Z,110
2017-08-11T16:10:05.234Z,105
2017-08-11T16:11:14.768Z,110
2017-08-11T16:12:24.323Z,110
2017-08-11T16:13:33.542Z,110
2017-08-11T16:14:42.462Z,105
2017-08-11T16:15:51.400Z,100
2017-08-11T16:17:00.608Z,100
2017-08-11T16:18:10.133Z,90
2017-08-11T16:19:19.020Z,85